EWG47 EDDK-EHRD
Flight info
| Callsign | EWG47 |
|---|---|
| Flight time | 0h 33m |
| Altitude | 25000 |
| Route | NVO3B NVO Y868 SOGRI L608 BUB Y28 HELEN |
| Aircraft | A320/M-SDE3FGHIRWY/LB1 |
Departure
| Time | 2026-05-05 17:57 |
|---|---|
| Airport | Cologne Bonn Airport (EDDK) |
Arrival
| Time | 2026-05-05 18:30 |
|---|---|
| Airport | Rotterdam The Hague Airport (EHRD) |
| Time | Latitude | Longitude | Altitude | Speed | Heading |
|---|---|---|---|---|---|
| 2026-05-05 17:28 | 50.87833 | 7.12457 | 236 ft | 0 kts | 288° |
| 2026-05-05 17:44 | 50.87829 | 7.12480 | 236 ft | 4 kts | 287° |
| 2026-05-05 17:44 | 50.87820 | 7.12519 | 233 ft | 4 kts | 299° |
| 2026-05-05 17:44 | 50.87804 | 7.12552 | 237 ft | 4 kts | 330° |
| 2026-05-05 17:45 | 50.87784 | 7.12559 | 237 ft | 1 kts | 18° |
| 2026-05-05 17:45 | 50.87779 | 7.12557 | 236 ft | 0 kts | 18° |
| 2026-05-05 17:47 | 50.87794 | 7.12569 | 234 ft | 3 kts | 36° |
| 2026-05-05 17:48 | 50.87806 | 7.12613 | 235 ft | 8 kts | 82° |
| 2026-05-05 17:48 | 50.87759 | 7.12714 | 232 ft | 15 kts | 138° |
| 2026-05-05 17:48 | 50.87692 | 7.12811 | 232 ft | 11 kts | 136° |
| 2026-05-05 17:48 | 50.87617 | 7.12920 | 232 ft | 17 kts | 137° |
| 2026-05-05 17:49 | 50.87542 | 7.13026 | 232 ft | 12 kts | 138° |
| 2026-05-05 17:49 | 50.87474 | 7.13125 | 232 ft | 16 kts | 137° |
| 2026-05-05 17:49 | 50.87380 | 7.13264 | 232 ft | 18 kts | 136° |
| 2026-05-05 17:49 | 50.87301 | 7.13379 | 232 ft | 13 kts | 137° |
| 2026-05-05 17:50 | 50.87236 | 7.13473 | 235 ft | 13 kts | 136° |
| 2026-05-05 17:50 | 50.87162 | 7.13578 | 237 ft | 13 kts | 137° |
| 2026-05-05 17:50 | 50.87104 | 7.13664 | 240 ft | 11 kts | 137° |
| 2026-05-05 17:50 | 50.87044 | 7.13750 | 242 ft | 15 kts | 138° |
| 2026-05-05 17:51 | 50.86923 | 7.13924 | 250 ft | 27 kts | 137° |
| 2026-05-05 17:51 | 50.86801 | 7.14102 | 255 ft | 23 kts | 139° |
| 2026-05-05 17:51 | 50.86697 | 7.14188 | 258 ft | 11 kts | 136° |
| 2026-05-05 17:51 | 50.86657 | 7.14249 | 261 ft | 6 kts | 136° |
| 2026-05-05 17:52 | 50.86610 | 7.14321 | 261 ft | 16 kts | 136° |
| 2026-05-05 17:52 | 50.86500 | 7.14478 | 266 ft | 22 kts | 137° |
| 2026-05-05 17:52 | 50.86368 | 7.14668 | 274 ft | 30 kts | 138° |
| 2026-05-05 17:52 | 50.86211 | 7.14899 | 283 ft | 29 kts | 137° |
| 2026-05-05 17:53 | 50.86074 | 7.15093 | 288 ft | 21 kts | 138° |
| 2026-05-05 17:53 | 50.86046 | 7.15250 | 290 ft | 17 kts | 75° |
| 2026-05-05 17:53 | 50.86151 | 7.15358 | 290 ft | 20 kts | 352° |
| 2026-05-05 17:53 | 50.86217 | 7.15336 | 290 ft | 0 kts | 347° |
| 2026-05-05 17:55 | 50.86222 | 7.15334 | 288 ft | 4 kts | 347° |
| 2026-05-05 17:55 | 50.86305 | 7.15305 | 287 ft | 17 kts | 346° |
| 2026-05-05 17:56 | 50.86431 | 7.15249 | 283 ft | 18 kts | 317° |
| 2026-05-05 17:56 | 50.86548 | 7.15079 | 277 ft | 42 kts | 317° |
| 2026-05-05 17:56 | 50.86961 | 7.14483 | 258 ft | 114 kts | 317° |
| 2026-05-05 17:56 | 50.87685 | 7.13448 | 296 ft | 161 kts | 318° |
| 2026-05-05 17:57 | 50.88536 | 7.12222 | 968 ft | 166 kts | 317° |
| 2026-05-05 17:57 | 50.89393 | 7.10990 | 1768 ft | 170 kts | 320° |
| 2026-05-05 17:57 | 50.90323 | 7.09664 | 2159 ft | 191 kts | 321° |
| 2026-05-05 17:57 | 50.91182 | 7.07960 | 2639 ft | 207 kts | 291° |
| 2026-05-05 17:58 | 50.91272 | 7.05660 | 3134 ft | 228 kts | 258° |
| 2026-05-05 17:58 | 50.90759 | 7.03122 | 3631 ft | 254 kts | 252° |
| 2026-05-05 17:58 | 50.90166 | 7.00402 | 4399 ft | 266 kts | 251° |
| 2026-05-05 17:58 | 50.89555 | 6.97605 | 5361 ft | 270 kts | 251° |
| 2026-05-05 17:59 | 50.88943 | 6.94775 | 6330 ft | 273 kts | 251° |
| 2026-05-05 17:59 | 50.88326 | 6.91911 | 7237 ft | 276 kts | 251° |
| 2026-05-05 17:59 | 50.87705 | 6.89011 | 8146 ft | 280 kts | 250° |
| 2026-05-05 17:59 | 50.87077 | 6.86074 | 9047 ft | 284 kts | 250° |
| 2026-05-05 18:00 | 50.86443 | 6.83097 | 9915 ft | 288 kts | 250° |
| 2026-05-05 18:00 | 50.85779 | 6.79996 | 10325 ft | 309 kts | 250° |
| 2026-05-05 18:00 | 50.85056 | 6.76649 | 10592 ft | 333 kts | 250° |
| 2026-05-05 18:00 | 50.84284 | 6.73074 | 10862 ft | 353 kts | 250° |
| 2026-05-05 18:01 | 50.83487 | 6.69372 | 11459 ft | 361 kts | 250° |
| 2026-05-05 18:01 | 50.82711 | 6.65537 | 12188 ft | 366 kts | 254° |
| 2026-05-05 18:01 | 50.82325 | 6.61527 | 12910 ft | 372 kts | 266° |
| 2026-05-05 18:01 | 50.82345 | 6.57400 | 13618 ft | 377 kts | 270° |
| 2026-05-05 18:02 | 50.82407 | 6.53239 | 14287 ft | 380 kts | 270° |
| 2026-05-05 18:02 | 50.82463 | 6.49102 | 14938 ft | 383 kts | 270° |
| 2026-05-05 18:02 | 50.82518 | 6.44871 | 15572 ft | 386 kts | 269° |
| 2026-05-05 18:02 | 50.82569 | 6.40599 | 16205 ft | 390 kts | 269° |
| 2026-05-05 18:03 | 50.82616 | 6.36299 | 16827 ft | 393 kts | 269° |
| 2026-05-05 18:03 | 50.82663 | 6.31950 | 17430 ft | 397 kts | 269° |
| 2026-05-05 18:03 | 50.82709 | 6.27560 | 18018 ft | 400 kts | 269° |
| 2026-05-05 18:03 | 50.82752 | 6.23136 | 18545 ft | 404 kts | 269° |
| 2026-05-05 18:04 | 50.82794 | 6.18679 | 19065 ft | 407 kts | 269° |
| 2026-05-05 18:04 | 50.82837 | 6.14182 | 19566 ft | 410 kts | 269° |
| 2026-05-05 18:04 | 50.82879 | 6.09657 | 20075 ft | 413 kts | 269° |
| 2026-05-05 18:04 | 50.82919 | 6.05108 | 20620 ft | 414 kts | 269° |
| 2026-05-05 18:05 | 50.82951 | 6.00545 | 21111 ft | 417 kts | 268° |
| 2026-05-05 18:05 | 50.82919 | 5.95937 | 21575 ft | 420 kts | 267° |
| 2026-05-05 18:05 | 50.82829 | 5.91300 | 22041 ft | 424 kts | 266° |
| 2026-05-05 18:05 | 50.82708 | 5.86626 | 22494 ft | 427 kts | 266° |
| 2026-05-05 18:06 | 50.82648 | 5.81921 | 22929 ft | 431 kts | 272° |
| 2026-05-05 18:06 | 50.82954 | 5.78807 | 23199 ft | 436 kts | 283° |
| 2026-05-05 18:06 | 50.84084 | 5.72605 | 23708 ft | 440 kts | 285° |
| 2026-05-05 18:06 | 50.84965 | 5.67954 | 24067 ft | 443 kts | 285° |
| 2026-05-05 18:07 | 50.85829 | 5.63259 | 24438 ft | 446 kts | 284° |
| 2026-05-05 18:07 | 50.86623 | 5.58513 | 24842 ft | 446 kts | 282° |
| 2026-05-05 18:07 | 50.87365 | 5.53733 | 25219 ft | 448 kts | 281° |
| 2026-05-05 18:07 | 50.88080 | 5.48914 | 25573 ft | 451 kts | 281° |
| 2026-05-05 18:08 | 50.88792 | 5.44065 | 25923 ft | 453 kts | 281° |
| 2026-05-05 18:08 | 50.89516 | 5.39194 | 26284 ft | 456 kts | 281° |
| 2026-05-05 18:08 | 50.90255 | 5.34294 | 26631 ft | 459 kts | 281° |
| 2026-05-05 18:08 | 50.91011 | 5.29371 | 26947 ft | 461 kts | 282° |
| 2026-05-05 18:09 | 50.91779 | 5.24414 | 27268 ft | 464 kts | 282° |
| 2026-05-05 18:09 | 50.92546 | 5.19449 | 27588 ft | 466 kts | 282° |
| 2026-05-05 18:09 | 50.93314 | 5.14440 | 27834 ft | 467 kts | 282° |
| 2026-05-05 18:09 | 50.94076 | 5.09450 | 27870 ft | 466 kts | 282° |
| 2026-05-05 18:10 | 50.94834 | 5.04462 | 27874 ft | 465 kts | 282° |
| 2026-05-05 18:10 | 50.95579 | 4.99549 | 27878 ft | 465 kts | 281° |
| 2026-05-05 18:10 | 50.96330 | 4.94560 | 27876 ft | 465 kts | 281° |
| 2026-05-05 18:10 | 50.97077 | 4.89574 | 27883 ft | 465 kts | 281° |
| 2026-05-05 18:11 | 50.97823 | 4.84595 | 27879 ft | 465 kts | 281° |
| 2026-05-05 18:11 | 50.98569 | 4.79601 | 27878 ft | 464 kts | 281° |
| 2026-05-05 18:11 | 50.99308 | 4.74619 | 27882 ft | 464 kts | 281° |
| 2026-05-05 18:11 | 51.00046 | 4.69613 | 27635 ft | 465 kts | 281° |
| 2026-05-05 18:12 | 51.00779 | 4.64628 | 27248 ft | 464 kts | 281° |
| 2026-05-05 18:12 | 51.01512 | 4.59640 | 26796 ft | 464 kts | 281° |
| 2026-05-05 18:12 | 51.02247 | 4.54650 | 26260 ft | 464 kts | 281° |
| 2026-05-05 18:12 | 51.02980 | 4.49658 | 25668 ft | 464 kts | 281° |
| 2026-05-05 18:13 | 51.03704 | 4.44671 | 25124 ft | 464 kts | 281° |
| 2026-05-05 18:13 | 51.04424 | 4.39670 | 24565 ft | 464 kts | 281° |
| 2026-05-05 18:13 | 51.05140 | 4.34681 | 24017 ft | 462 kts | 281° |
| 2026-05-05 18:13 | 51.05850 | 4.29727 | 23481 ft | 457 kts | 281° |
| 2026-05-05 18:14 | 51.06548 | 4.24815 | 22853 ft | 453 kts | 281° |
| 2026-05-05 18:14 | 51.07233 | 4.19951 | 22230 ft | 450 kts | 281° |
| 2026-05-05 18:14 | 51.07915 | 4.15108 | 21628 ft | 447 kts | 281° |
| 2026-05-05 18:14 | 51.08685 | 4.10373 | 21197 ft | 436 kts | 288° |
| 2026-05-05 18:15 | 51.09885 | 4.06037 | 20790 ft | 424 kts | 298° |
| 2026-05-05 18:15 | 51.11523 | 4.02167 | 20192 ft | 421 kts | 308° |
| 2026-05-05 18:15 | 51.13562 | 3.98856 | 19567 ft | 418 kts | 319° |
| 2026-05-05 18:15 | 51.15874 | 3.96063 | 18957 ft | 415 kts | 323° |
| 2026-05-05 18:16 | 51.18172 | 3.93354 | 18555 ft | 407 kts | 323° |
| 2026-05-05 18:16 | 51.20448 | 3.90721 | 18105 ft | 402 kts | 327° |
| 2026-05-05 18:16 | 51.22894 | 3.88676 | 17584 ft | 388 kts | 338° |
| 2026-05-05 18:16 | 51.25407 | 3.87421 | 17067 ft | 370 kts | 349° |
| 2026-05-05 18:17 | 51.27911 | 3.86886 | 16491 ft | 355 kts | 360° |
| 2026-05-05 18:17 | 51.30312 | 3.86821 | 15934 ft | 344 kts | 1° |
| 2026-05-05 18:17 | 51.32688 | 3.86768 | 15379 ft | 339 kts | 1° |
| 2026-05-05 18:17 | 51.35057 | 3.86709 | 14841 ft | 341 kts | 1° |
| 2026-05-05 18:18 | 51.37432 | 3.86649 | 14296 ft | 342 kts | 1° |
| 2026-05-05 18:18 | 51.39802 | 3.86921 | 13782 ft | 341 kts | 13° |
| 2026-05-05 18:18 | 51.42044 | 3.88023 | 13194 ft | 331 kts | 29° |
| 2026-05-05 18:18 | 51.43996 | 3.89858 | 12618 ft | 320 kts | 31° |
| 2026-05-05 18:19 | 51.45926 | 3.91538 | 12052 ft | 312 kts | 29° |
| 2026-05-05 18:19 | 51.47853 | 3.93055 | 11496 ft | 305 kts | 26° |
| 2026-05-05 18:19 | 51.49762 | 3.94469 | 10952 ft | 299 kts | 25° |
| 2026-05-05 18:19 | 51.51645 | 3.95821 | 10410 ft | 294 kts | 24° |
| 2026-05-05 18:20 | 51.53500 | 3.97139 | 9880 ft | 289 kts | 24° |
| 2026-05-05 18:20 | 51.54702 | 3.97992 | 9509 ft | 287 kts | 24° |
| 2026-05-05 18:20 | 51.57135 | 3.99726 | 8783 ft | 282 kts | 24° |
| 2026-05-05 18:20 | 51.58919 | 4.01013 | 8314 ft | 280 kts | 24° |
| 2026-05-05 18:21 | 51.60688 | 4.02296 | 7858 ft | 278 kts | 24° |
| 2026-05-05 18:21 | 51.62444 | 4.03572 | 7401 ft | 278 kts | 24° |
| 2026-05-05 18:21 | 51.64202 | 4.04855 | 6954 ft | 278 kts | 24° |
| 2026-05-05 18:21 | 51.65966 | 4.06143 | 6511 ft | 278 kts | 24° |
| 2026-05-05 18:22 | 51.67726 | 4.07427 | 6070 ft | 277 kts | 24° |
| 2026-05-05 18:22 | 51.69467 | 4.08695 | 5686 ft | 268 kts | 24° |
| 2026-05-05 18:22 | 51.71094 | 4.09883 | 5523 ft | 248 kts | 24° |
| 2026-05-05 18:22 | 51.72110 | 4.10625 | 5412 ft | 235 kts | 25° |
| 2026-05-05 18:23 | 51.73547 | 4.11674 | 5212 ft | 220 kts | 24° |
| 2026-05-05 18:23 | 51.74928 | 4.12684 | 4803 ft | 216 kts | 25° |
| 2026-05-05 18:23 | 51.76713 | 4.13985 | 4312 ft | 208 kts | 25° |
| 2026-05-05 18:23 | 51.78002 | 4.14919 | 4086 ft | 199 kts | 24° |
| 2026-05-05 18:24 | 51.79250 | 4.15817 | 3782 ft | 196 kts | 25° |
| 2026-05-05 18:24 | 51.80093 | 4.16423 | 3600 ft | 195 kts | 25° |
| 2026-05-05 18:24 | 51.81334 | 4.17318 | 3349 ft | 195 kts | 25° |
| 2026-05-05 18:24 | 51.82571 | 4.18208 | 3095 ft | 195 kts | 25° |
| 2026-05-05 18:25 | 51.83808 | 4.19100 | 2854 ft | 195 kts | 25° |
| 2026-05-05 18:25 | 51.84625 | 4.19691 | 2704 ft | 194 kts | 25° |
| 2026-05-05 18:25 | 51.86229 | 4.21006 | 2392 ft | 192 kts | 38° |
| 2026-05-05 18:25 | 51.87096 | 4.22618 | 2156 ft | 191 kts | 54° |
| 2026-05-05 18:26 | 51.87815 | 4.24406 | 2041 ft | 190 kts | 55° |
| 2026-05-05 18:26 | 51.88512 | 4.26139 | 2000 ft | 179 kts | 55° |
| 2026-05-05 18:26 | 51.89173 | 4.27782 | 2022 ft | 171 kts | 54° |
| 2026-05-05 18:26 | 51.89819 | 4.29386 | 1941 ft | 169 kts | 54° |
| 2026-05-05 18:27 | 51.90448 | 4.30952 | 1763 ft | 162 kts | 55° |
| 2026-05-05 18:27 | 51.91040 | 4.32426 | 1569 ft | 148 kts | 54° |
| 2026-05-05 18:27 | 51.91577 | 4.33766 | 1391 ft | 137 kts | 53° |
| 2026-05-05 18:27 | 51.92088 | 4.35036 | 1196 ft | 133 kts | 53° |
| 2026-05-05 18:28 | 51.93078 | 4.37526 | 857 ft | 132 kts | 54° |
| 2026-05-05 18:28 | 51.93559 | 4.38766 | 676 ft | 131 kts | 54° |
| 2026-05-05 18:28 | 51.94079 | 4.39992 | 514 ft | 130 kts | 52° |
| 2026-05-05 18:29 | 51.94559 | 4.41210 | 317 ft | 128 kts | 54° |
| 2026-05-05 18:29 | 51.95035 | 4.42395 | 105 ft | 122 kts | 54° |
| 2026-05-05 18:29 | 51.95503 | 4.43578 | 4 ft | 122 kts | 54° |
| 2026-05-05 18:29 | 51.95869 | 4.44475 | -2 ft | 56 kts | 57° |
| 2026-05-05 18:30 | 51.95999 | 4.44798 | -1 ft | 31 kts | 57° |
| 2026-05-05 18:30 | 51.96117 | 4.45087 | 2 ft | 32 kts | 56° |
| 2026-05-05 18:30 | 51.96139 | 4.45326 | 2 ft | 22 kts | 123° |
| 2026-05-05 18:30 | 51.96042 | 4.45389 | 1 ft | 15 kts | 209° |
| 2026-05-05 18:31 | 51.95985 | 4.45262 | 1 ft | 13 kts | 239° |
| 2026-05-05 18:31 | 51.95933 | 4.45128 | 1 ft | 18 kts | 237° |
| 2026-05-05 18:31 | 51.95855 | 4.44932 | 1 ft | 21 kts | 237° |
| 2026-05-05 18:31 | 51.95780 | 4.44743 | 1 ft | 19 kts | 237° |
| 2026-05-05 18:32 | 51.95711 | 4.44572 | 1 ft | 18 kts | 236° |
| 2026-05-05 18:32 | 51.95647 | 4.44409 | 1 ft | 16 kts | 237° |
| 2026-05-05 18:32 | 51.95589 | 4.44262 | 1 ft | 15 kts | 237° |
| 2026-05-05 18:32 | 51.95534 | 4.44124 | 1 ft | 14 kts | 235° |
| 2026-05-05 18:33 | 51.95482 | 4.43995 | 1 ft | 13 kts | 237° |
| 2026-05-05 18:33 | 51.95432 | 4.43874 | 1 ft | 13 kts | 236° |
| 2026-05-05 18:33 | 51.95384 | 4.43756 | 1 ft | 12 kts | 237° |
| 2026-05-05 18:33 | 51.95340 | 4.43645 | 1 ft | 11 kts | 237° |
| 2026-05-05 18:34 | 51.95300 | 4.43543 | 1 ft | 10 kts | 237° |
| 2026-05-05 18:34 | 51.95250 | 4.43507 | 1 ft | 10 kts | 159° |
| 2026-05-05 18:34 | 51.95173 | 4.43586 | 1 ft | 13 kts | 146° |
| 2026-05-05 18:34 | 51.95126 | 4.43626 | 1 ft | 4 kts | 176° |
| 2026-05-05 18:35 | 51.95093 | 4.43580 | 1 ft | 5 kts | 235° |
| 2026-05-05 18:35 | 51.95085 | 4.43560 | 1 ft | 3 kts | 235° |
| 2026-05-05 18:35 | 51.95077 | 4.43534 | 1 ft | 2 kts | 259° |
| 2026-05-05 18:35 | 51.95094 | 4.43505 | 1 ft | 4 kts | 323° |
| 2026-05-05 18:36 | 51.95110 | 4.43488 | 1 ft | 0 kts | 327° |